Time;durP1;ratioP1;P1;durP2;ratioP2;P2;SDS_P1;SDS_P2;PMS_P1;PMS_P2;Temp;Humidity;BMP_temperature;BMP_pressure;BME280_temperature;BME280_humidity;BME280_pressure;Samples;Min_cycle;Max_cycle;Signal;HPM_P1;HPM_P2
2021/05/28 00:00:33;;;;;;;;;;;13.30;99.60;;;;;;4976320;28;19909;-75
2021/05/28 00:02:59;;;;;;;;;;;13.30;99.50;;;;;;4995309;28;19906;-74
2021/05/28 00:05:25;;;;;;;;;;;13.30;99.70;;;;;;4993270;28;20275;-74
2021/05/28 00:07:50;;;;;;;;;;;13.30;99.60;;;;;;4976222;28;19972;-74
2021/05/28 00:10:16;;;;;;;;;;;13.30;99.60;;;;;;4993505;28;19910;-74
2021/05/28 00:12:42;;;;;;;;;;;13.20;99.60;;;;;;4976171;28;20016;-74
2021/05/28 00:15:12;;;;;;;;;;;13.00;99.80;;;;;;4994889;28;20390;-73
2021/05/28 00:17:37;;;;;;;;;;;13.10;99.90;;;;;;4993498;28;19917;-73
2021/05/28 00:20:07;;;;;;;;;;;13.20;99.90;;;;;;4992979;28;19936;-74
2021/05/28 00:22:32;;;;;;;;;;;13.10;99.80;;;;;;4992633;28;19967;-74
2021/05/28 00:24:57;;;;;;;;;;;13.20;99.80;;;;;;4993091;28;19925;-74
2021/05/28 00:27:23;;;;;;;;;;;13.30;99.80;;;;;;4992792;28;19906;-74
2021/05/28 00:29:50;;;;;;;;;;;13.00;99.90;;;;;;4994619;28;20051;-73
2021/05/28 00:32:15;;;;;;;;;;;13.00;99.90;;;;;;4992731;28;20355;-73
2021/05/28 00:34:41;;;;;;;;;;;13.10;99.90;;;;;;4992808;28;20023;-73
2021/05/28 00:37:06;;;;;;;;;;;13.00;99.80;;;;;;4992673;28;20001;-73
2021/05/28 00:39:32;;;;;;;;;;;13.00;99.90;;;;;;4975613;28;19910;-73
2021/05/28 00:41:57;;;;;;;;;;;13.10;99.80;;;;;;4994829;28;19917;-74
2021/05/28 00:44:26;;;;;;;;;;;13.20;99.70;;;;;;4992931;28;19914;-73
2021/05/28 00:46:51;;;;;;;;;;;13.00;99.70;;;;;;4992694;28;19910;-73
2021/05/28 00:49:17;;;;;;;;;;;13.10;99.90;;;;;;4975376;28;20278;-74
2021/05/28 00:51:42;;;;;;;;;;;13.00;99.90;;;;;;4992439;28;20319;-73
2021/05/28 00:54:09;;;;;;;;;;;13.20;99.90;;;;;;4991945;28;19933;-73
2021/05/28 00:56:34;;;;;;;;;;;13.10;99.80;;;;;;4993979;28;19973;-73
2021/05/28 00:59:01;;;;;;;;;;;12.90;99.90;;;;;;4992348;28;19910;-73
2021/05/28 01:01:27;;;;;;;;;;;12.90;99.90;;;;;;4992348;28;19910;-73
2021/05/28 01:03:52;;;;;;;;;;;12.80;99.90;;;;;;4991144;28;19972;-73
2021/05/28 01:06:18;;;;;;;;;;;12.90;99.90;;;;;;4991787;28;19929;-73
2021/05/28 01:08:44;;;;;;;;;;;13.00;99.90;;;;;;4993687;28;20334;-74
2021/05/28 01:11:10;;;;;;;;;;;13.10;99.90;;;;;;4992228;28;19909;-74
2021/05/28 01:13:35;;;;;;;;;;;13.10;99.80;;;;;;4991903;28;19914;-74
2021/05/28 01:16:01;;;;;;;;;;;12.90;99.90;;;;;;4975102;28;19909;-73
2021/05/28 01:18:26;;;;;;;;;;;12.90;99.90;;;;;;4992056;28;20243;-73
2021/05/28 01:20:52;;;;;;;;;;;13.00;99.90;;;;;;4993687;28;20178;-73
2021/05/28 01:23:17;;;;;;;;;;;12.90;99.90;;;;;;4991925;28;19989;-74
2021/05/28 01:25:43;;;;;;;;;;;13.00;99.90;;;;;;4991851;28;20323;-74
2021/05/28 01:28:10;;;;;;;;;;;13.00;99.90;;;;;;4991676;28;20248;-74
2021/05/28 01:30:36;;;;;;;;;;;12.90;99.90;;;;;;4991477;28;19914;-73
2021/05/28 01:33:02;;;;;;;;;;;12.90;99.90;;;;;;4993536;28;19917;-74
2021/05/28 01:35:27;;;;;;;;;;;12.90;99.90;;;;;;4996738;28;20040;-74
2021/05/28 01:37:53;;;;;;;;;;;12.90;99.90;;;;;;5011233;28;20263;-73
2021/05/28 01:40:19;;;;;;;;;;;12.90;99.90;;;;;;4993509;28;20006;-74
2021/05/28 01:42:45;;;;;;;;;;;12.90;99.80;;;;;;5011011;28;20414;-74
2021/05/28 01:45:11;;;;;;;;;;;13.00;99.80;;;;;;4993700;28;19909;-74
2021/05/28 01:47:36;;;;;;;;;;;13.00;99.80;;;;;;5012680;28;19943;-74
2021/05/28 01:50:03;;;;;;;;;;;12.90;99.90;;;;;;5011190;28;20255;-73
2021/05/28 01:52:28;;;;;;;;;;;12.90;99.90;;;;;;5011115;28;20377;-73
2021/05/28 01:54:55;;;;;;;;;;;12.90;99.90;;;;;;5010941;28;19993;-74
2021/05/28 01:57:21;;;;;;;;;;;12.80;99.90;;;;;;4993460;28;19957;-74
2021/05/28 01:59:47;;;;;;;;;;;12.80;99.90;;;;;;5012493;28;19960;-72
2021/05/28 02:02:13;;;;;;;;;;;12.80;99.90;;;;;;5010972;28;19913;-74
2021/05/28 02:04:39;;;;;;;;;;;12.90;99.90;;;;;;5010665;28;20251;-73
2021/05/28 02:07:05;;;;;;;;;;;12.80;99.90;;;;;;5010986;28;19961;-72
2021/05/28 02:09:32;;;;;;;;;;;12.90;99.90;;;;;;4993334;28;20008;-73
2021/05/28 02:11:57;;;;;;;;;;;12.80;99.80;;;;;;5012328;28;19905;-73
2021/05/28 02:14:26;;;;;;;;;;;12.70;99.90;;;;;;5010615;28;20247;-73
2021/05/28 02:16:52;;;;;;;;;;;12.60;99.90;;;;;;5010040;28;19910;-73
2021/05/28 02:19:17;;;;;;;;;;;12.60;99.90;;;;;;4993011;28;20263;-73
2021/05/28 02:21:43;;;;;;;;;;;12.80;99.90;;;;;;5010423;28;19924;-72
2021/05/28 02:24:13;;;;;;;;;;;12.70;99.90;;;;;;5010645;28;20298;-72
2021/05/28 02:26:39;;;;;;;;;;;12.60;99.90;;;;;;5012135;28;19901;-73
2021/05/28 02:29:05;;;;;;;;;;;12.70;99.90;;;;;;5010292;28;19971;-73
2021/05/28 02:31:31;;;;;;;;;;;12.60;99.90;;;;;;5010684;28;20248;-73
2021/05/28 02:33:56;;;;;;;;;;;12.50;99.90;;;;;;5010312;28;19976;-73
2021/05/28 02:36:22;;;;;;;;;;;12.30;99.90;;;;;;5010422;28;20331;-73
2021/05/28 02:38:47;;;;;;;;;;;12.30;99.90;;;;;;5011873;28;19913;-73
2021/05/28 02:41:13;;;;;;;;;;;12.30;99.90;;;;;;5010569;28;19921;-73
2021/05/28 02:43:38;;;;;;;;;;;12.40;99.90;;;;;;4992564;28;19921;-73
2021/05/28 02:46:04;;;;;;;;;;;12.40;99.90;;;;;;5010525;28;19909;-73
2021/05/28 02:48:29;;;;;;;;;;;12.40;99.90;;;;;;4992692;28;20420;-73
2021/05/28 02:50:55;;;;;;;;;;;12.30;99.90;;;;;;4994324;28;19951;-73
2021/05/28 02:53:20;;;;;;;;;;;12.20;99.90;;;;;;5009913;28;20386;-73
2021/05/28 02:55:46;;;;;;;;;;;12.20;99.90;;;;;;5010252;28;19909;-73
2021/05/28 02:58:11;;;;;;;;;;;12.20;99.90;;;;;;4992744;28;19960;-75
2021/05/28 03:00:37;;;;;;;;;;;12.10;99.90;;;;;;5010112;28;19910;-74
2021/05/28 03:03:03;;;;;;;;;;;12.10;99.90;;;;;;5011744;28;20176;-73
2021/05/28 03:05:29;;;;;;;;;;;12.00;99.90;;;;;;5010177;28;19948;-72
2021/05/28 03:07:54;;;;;;;;;;;12.00;99.90;;;;;;5009854;28;20000;-74
2021/05/28 03:10:20;;;;;;;;;;;12.00;99.90;;;;;;4992415;28;20213;-73
2021/05/28 03:12:45;;;;;;;;;;;11.70;99.90;;;;;;5009714;28;20258;-73
2021/05/28 03:15:11;;;;;;;;;;;11.80;99.90;;;;;;4992747;28;19960;-73
2021/05/28 03:17:41;;;;;;;;;;;12.00;99.90;;;;;;5011586;28;20259;-74
2021/05/28 03:20:15;;;;;;;;;;;12.00;99.90;;;;;;5009110;28;19975;-74
2021/05/28 03:22:41;;;;;;;;;;;12.00;99.90;;;;;;5009795;28;20005;-74
2021/05/28 03:25:08;;;;;;;;;;;12.00;99.90;;;;;;4992263;28;19992;-74
2021/05/28 03:27:34;;;;;;;;;;;12.00;99.90;;;;;;5010588;28;19979;-73
2021/05/28 03:30:00;;;;;;;;;;;12.00;99.90;;;;;;5015433;28;19909;-74
2021/05/28 03:32:25;;;;;;;;;;;11.90;99.90;;;;;;5013245;28;20024;-74
2021/05/28 03:34:52;;;;;;;;;;;12.00;99.90;;;;;;5013523;28;20034;-74
2021/05/28 03:37:18;;;;;;;;;;;11.90;99.90;;;;;;5013301;28;19917;-73
2021/05/28 03:39:47;;;;;;;;;;;11.90;99.90;;;;;;5013344;28;19910;-73
2021/05/28 03:42:12;;;;;;;;;;;11.90;99.90;;;;;;4996326;28;20355;-74
2021/05/28 03:44:38;;;;;;;;;;;11.80;99.90;;;;;;4997764;28;19951;-73
2021/05/28 03:47:05;;;;;;;;;;;11.80;99.90;;;;;;5013113;28;19910;-73
2021/05/28 03:49:30;;;;;;;;;;;11.80;99.90;;;;;;4995850;28;19987;-75
2021/05/28 03:51:56;;;;;;;;;;;11.80;99.90;;;;;;5013289;28;20288;-75
2021/05/28 03:54:21;;;;;;;;;;;11.80;99.90;;;;;;5012820;28;19957;-72
2021/05/28 03:56:47;;;;;;;;;;;11.70;99.90;;;;;;5014551;28;19905;-74
2021/05/28 03:59:13;;;;;;;;;;;11.70;99.90;;;;;;5013152;28;20263;-74
2021/05/28 04:01:39;;;;;;;;;;;11.70;99.90;;;;;;5012797;28;19909;-74
2021/05/28 04:04:04;;;;;;;;;;;11.60;99.90;;;;;;5012739;28;19920;-74
2021/05/28 04:06:30;;;;;;;;;;;11.60;99.90;;;;;;5012563;28;19917;-74
2021/05/28 04:08:55;;;;;;;;;;;11.60;99.90;;;;;;5014251;28;19916;-74
2021/05/28 04:11:21;;;;;;;;;;;11.50;99.90;;;;;;5013128;28;20020;-74
2021/05/28 04:13:47;;;;;;;;;;;11.60;99.90;;;;;;5012861;28;19920;-74
2021/05/28 04:16:12;;;;;;;;;;;11.60;99.90;;;;;;5012497;28;19909;-73
2021/05/28 04:18:37;;;;;;;;;;;11.60;99.90;;;;;;5012541;28;19963;-75
2021/05/28 04:21:03;;;;;;;;;;;11.60;99.90;;;;;;5014006;28;19921;-74
2021/05/28 04:23:29;;;;;;;;;;;11.50;99.90;;;;;;5012553;28;20407;-74
2021/05/28 04:25:55;;;;;;;;;;;11.50;99.90;;;;;;5012398;28;20259;-74
2021/05/28 04:28:20;;;;;;;;;;;11.50;99.90;;;;;;5012321;28;20019;-74
2021/05/28 04:30:46;;;;;;;;;;;11.50;99.90;;;;;;5012537;28;19910;-75
2021/05/28 04:33:11;;;;;;;;;;;11.50;99.90;;;;;;5012402;28;20429;-74
2021/05/28 04:35:37;;;;;;;;;;;11.50;99.90;;;;;;4997259;28;19952;-74
2021/05/28 04:38:03;;;;;;;;;;;11.50;99.90;;;;;;5012365;28;19940;-73
2021/05/28 04:40:30;;;;;;;;;;;11.50;99.90;;;;;;5011518;28;19948;-74
2021/05/28 04:42:56;;;;;;;;;;;11.50;99.90;;;;;;5012212;28;19910;-74
2021/05/28 04:45:21;;;;;;;;;;;11.60;99.90;;;;;;5012177;28;20340;-74
2021/05/28 04:47:47;;;;;;;;;;;11.60;99.90;;;;;;5014065;28;19916;-74
2021/05/28 04:50:12;;;;;;;;;;;11.70;99.90;;;;;;5012290;28;19913;-74
2021/05/28 04:52:38;;;;;;;;;;;11.60;99.90;;;;;;5012025;28;20317;-74
2021/05/28 04:55:04;;;;;;;;;;;11.60;99.90;;;;;;4994306;28;19913;-73
2021/05/28 04:57:29;;;;;;;;;;;11.50;99.90;;;;;;5012068;28;19917;-73
2021/05/28 04:59:55;;;;;;;;;;;11.50;99.90;;;;;;5013602;28;20072;-74
2021/05/28 05:02:20;;;;;;;;;;;11.50;99.90;;;;;;4994756;28;20298;-75
2021/05/28 05:04:46;;;;;;;;;;;11.60;99.90;;;;;;5011820;28;19920;-74
2021/05/28 05:07:11;;;;;;;;;;;11.70;99.90;;;;;;4994534;28;19909;-74
2021/05/28 05:09:37;;;;;;;;;;;11.80;99.90;;;;;;4994071;28;19913;-74
2021/05/28 05:12:03;;;;;;;;;;;11.70;99.70;;;;;;5013355;28;19950;-75
2021/05/28 05:14:28;;;;;;;;;;;11.90;99.80;;;;;;4994159;28;20271;-74
2021/05/28 05:16:54;;;;;;;;;;;11.90;99.60;;;;;;4993950;28;20339;-74
2021/05/28 05:19:19;;;;;;;;;;;12.10;99.50;;;;;;5011474;28;20458;-74
2021/05/28 05:21:45;;;;;;;;;;;12.10;99.40;;;;;;5011506;28;20370;-75
2021/05/28 05:24:10;;;;;;;;;;;12.10;99.30;;;;;;5011273;28;19913;-74
2021/05/28 05:26:37;;;;;;;;;;;12.20;99.30;;;;;;4995656;28;20286;-75
2021/05/28 05:29:03;;;;;;;;;;;12.30;99.20;;;;;;5011496;28;20379;-74
2021/05/28 05:31:29;;;;;;;;;;;12.40;99.10;;;;;;5010566;28;19940;-75
2021/05/28 05:33:54;;;;;;;;;;;12.50;99.20;;;;;;4993602;28;19924;-74
2021/05/28 05:36:20;;;;;;;;;;;12.60;98.80;;;;;;5011095;28;19999;-74
2021/05/28 05:38:45;;;;;;;;;;;12.60;98.70;;;;;;4995473;28;19909;-74
2021/05/28 05:41:11;;;;;;;;;;;12.90;98.80;;;;;;5010933;28;20012;-75
2021/05/28 05:43:36;;;;;;;;;;;12.60;98.60;;;;;;5011341;28;19988;-74
2021/05/28 05:46:02;;;;;;;;;;;12.70;98.40;;;;;;5011123;28;19920;-75
2021/05/28 05:48:28;;;;;;;;;;;12.80;98.70;;;;;;5011068;28;19921;-74
2021/05/28 05:50:54;;;;;;;;;;;13.00;98.10;;;;;;5012578;28;19975;-83
2021/05/28 05:53:19;;;;;;;;;;;13.10;97.90;;;;;;5011040;28;19920;-82
2021/05/28 05:55:45;;;;;;;;;;;12.90;97.70;;;;;;5011382;28;20287;-80
2021/05/28 05:58:10;;;;;;;;;;;12.80;98.00;;;;;;5011134;28;20507;-84
2021/05/28 06:00:36;;;;;;;;;;;12.90;98.10;;;;;;5011349;28;19920;-85
2021/05/28 06:03:02;;;;;;;;;;;12.80;98.40;;;;;;4995563;28;19913;-84
2021/05/28 06:05:28;;;;;;;;;;;13.10;98.10;;;;;;5011613;28;19916;-75
2021/05/28 06:07:53;;;;;;;;;;;13.40;97.90;;;;;;5012972;28;19914;-76
2021/05/28 06:10:19;;;;;;;;;;;13.70;97.60;;;;;;5013569;28;20316;-85
2021/05/28 06:12:44;;;;;;;;;;;13.60;97.10;;;;;;5014598;28;19932;-82
2021/05/28 06:15:10;;;;;;;;;;;13.70;97.20;;;;;;4996472;28;19906;-83
2021/05/28 06:17:35;;;;;;;;;;;13.90;97.10;;;;;;5014151;28;19979;-80
2021/05/28 06:20:01;;;;;;;;;;;13.80;96.80;;;;;;5011842;28;19921;-77
2021/05/28 06:22:27;;;;;;;;;;;13.90;96.80;;;;;;5012907;28;20382;-77
2021/05/28 06:24:52;;;;;;;;;;;13.80;96.70;;;;;;5012068;28;19921;-79
2021/05/28 06:27:18;;;;;;;;;;;13.90;96.80;;;;;;5012808;28;19909;-78
2021/05/28 06:29:44;;;;;;;;;;;14.10;97.10;;;;;;5013881;28;19905;-77
2021/05/28 06:32:09;;;;;;;;;;;13.90;96.20;;;;;;5012032;28;20357;-77
2021/05/28 06:34:35;;;;;;;;;;;13.90;96.60;;;;;;5012023;28;20319;-75
2021/05/28 06:37:01;;;;;;;;;;;13.60;96.70;;;;;;5010651;28;20378;-77
2021/05/28 06:39:27;;;;;;;;;;;13.50;96.70;;;;;;4992405;28;23060;-75
2021/05/28 06:41:52;;;;;;;;;;;13.70;97.00;;;;;;5012153;28;20409;-76
2021/05/28 06:44:23;;;;;;;;;;;13.80;96.70;;;;;;5010313;28;19917;-76
2021/05/28 06:46:52;;;;;;;;;;;13.70;96.50;;;;;;4992670;28;19928;-75
2021/05/28 06:49:18;;;;;;;;;;;13.60;96.70;;;;;;4993057;28;19910;-75
2021/05/28 06:51:44;;;;;;;;;;;13.60;96.60;;;;;;5010088;28;19933;-73
2021/05/28 06:54:10;;;;;;;;;;;13.80;96.60;;;;;;5009759;28;20012;-77
2021/05/28 06:56:35;;;;;;;;;;;14.00;96.50;;;;;;5011725;28;19996;-76
2021/05/28 06:59:01;;;;;;;;;;;14.00;96.50;;;;;;5010153;28;19919;-76
2021/05/28 07:01:26;;;;;;;;;;;14.20;96.40;;;;;;5010405;28;19909;-76
2021/05/28 07:03:52;;;;;;;;;;;14.10;96.30;;;;;;5013070;28;19935;-74
2021/05/28 07:06:17;;;;;;;;;;;14.20;96.30;;;;;;5013982;28;19913;-75
2021/05/28 07:08:45;;;;;;;;;;;14.10;96.40;;;;;;5015489;28;19909;-75
2021/05/28 07:11:10;;;;;;;;;;;14.00;96.00;;;;;;5014086;28;19941;-76
2021/05/28 07:13:36;;;;;;;;;;;14.00;96.40;;;;;;5013859;28;19968;-74
2021/05/28 07:16:02;;;;;;;;;;;14.10;96.20;;;;;;5013707;28;20164;-76
2021/05/28 07:18:27;;;;;;;;;;;14.40;96.30;;;;;;5013569;28;19958;-75
2021/05/28 07:20:52;;;;;;;;;;;14.80;96.10;;;;;;5015052;28;19954;-75
2021/05/28 07:23:19;;;;;;;;;;;14.90;95.30;;;;;;5013576;28;19929;-73
2021/05/28 07:25:45;;;;;;;;;;;14.80;95.20;;;;;;4996135;28;19909;-74
2021/05/28 07:28:11;;;;;;;;;;;14.80;95.10;;;;;;5013145;28;20294;-77
2021/05/28 07:30:36;;;;;;;;;;;14.90;95.50;;;;;;5013296;28;19921;-75
2021/05/28 07:33:02;;;;;;;;;;;15.10;94.80;;;;;;5014997;28;19910;-76
2021/05/28 07:35:28;;;;;;;;;;;15.20;94.70;;;;;;5012657;28;19909;-77
2021/05/28 07:37:53;;;;;;;;;;;15.50;94.10;;;;;;4995646;28;19999;-78
2021/05/28 07:40:19;;;;;;;;;;;15.80;94.30;;;;;;5013059;28;20350;-75
2021/05/28 07:42:44;;;;;;;;;;;15.90;93.70;;;;;;5013290;28;19931;-75
2021/05/28 07:45:10;;;;;;;;;;;15.90;93.80;;;;;;5012996;28;19995;-73
2021/05/28 07:47:35;;;;;;;;;;;16.40;93.70;;;;;;5014915;28;19995;-75
2021/05/28 07:50:04;;;;;;;;;;;16.80;92.90;;;;;;5013052;28;19917;-76
2021/05/28 07:52:29;;;;;;;;;;;17.10;92.60;;;;;;5012896;28;19925;-77
2021/05/28 07:54:55;;;;;;;;;;;17.80;91.70;;;;;;5012578;28;19910;-76
2021/05/28 07:57:20;;;;;;;;;;;18.10;90.60;;;;;;5011941;28;19909;-81
2021/05/28 07:59:46;;;;;;;;;;;18.20;89.70;;;;;;4996736;28;20000;-75
2021/05/28 08:02:11;;;;;;;;;;;18.60;88.70;;;;;;5013225;28;19932;-74
2021/05/28 08:04:37;;;;;;;;;;;19.50;89.10;;;;;;4994936;28;19949;-75
2021/05/28 08:07:03;;;;;;;;;;;20.70;87.30;;;;;;5012846;28;19909;-73
2021/05/28 08:09:28;;;;;;;;;;;21.60;86.60;;;;;;5012667;28;20096;-73
2021/05/28 08:11:54;;;;;;;;;;;22.40;81.70;;;;;;5013330;28;19905;-73
2021/05/28 08:14:19;;;;;;;;;;;23.30;78.80;;;;;;5011090;28;19924;-74
2021/05/28 08:16:45;;;;;;;;;;;22.40;74.50;;;;;;5013012;28;20269;-76
2021/05/28 08:19:10;;;;;;;;;;;21.60;74.90;;;;;;5012620;28;20058;-76
2021/05/28 08:21:36;;;;;;;;;;;21.80;76.30;;;;;;5012818;28;19909;-75
2021/05/28 08:24:01;;;;;;;;;;;22.90;74.90;;;;;;4996859;28;20015;-75
2021/05/28 08:26:27;;;;;;;;;;;22.90;69.90;;;;;;4995172;28;20264;-75
2021/05/28 08:28:52;;;;;;;;;;;23.50;74.10;;;;;;5012002;28;19972;-76
2021/05/28 08:31:18;;;;;;;;;;;24.50;70.80;;;;;;5012372;28;19918;-75
2021/05/28 08:33:45;;;;;;;;;;;26.00;65.80;;;;;;5012189;28;20346;-75
2021/05/28 08:36:10;;;;;;;;;;;26.40;63.30;;;;;;5012107;28;20257;-74
2021/05/28 08:38:36;;;;;;;;;;;26.20;60.60;;;;;;5013899;28;20134;-77
2021/05/28 08:41:02;;;;;;;;;;;26.00;61.70;;;;;;5011944;28;19909;-78
2021/05/28 08:43:28;;;;;;;;;;;26.50;60.30;;;;;;4994100;28;19909;-76
2021/05/28 08:45:55;;;;;;;;;;;26.60;58.40;;;;;;5012109;28;19977;-75
2021/05/28 08:48:20;;;;;;;;;;;26.60;57.40;;;;;;5012231;28;20331;-76
2021/05/28 08:50:47;;;;;;;;;;;25.00;57.90;;;;;;4996421;28;19905;-76
2021/05/28 08:53:13;;;;;;;;;;;24.10;58.40;;;;;;5011679;28;19913;-75
2021/05/28 08:55:40;;;;;;;;;;;24.50;57.70;;;;;;5011513;28;20001;-75
2021/05/28 08:58:06;;;;;;;;;;;25.40;57.80;;;;;;4993693;28;19910;-74
2021/05/28 09:00:32;;;;;;;;;;;25.20;55.10;;;;;;5011715;28;19910;-75
2021/05/28 09:02:59;;;;;;;;;;;24.30;58.30;;;;;;5013370;28;19928;-75
2021/05/28 09:05:25;;;;;;;;;;;25.30;58.10;;;;;;5012010;28;19909;-75
2021/05/28 09:08:00;;;;;;;;;;;25.70;56.70;;;;;;5011736;28;19941;-76
2021/05/28 09:10:26;;;;;;;;;;;25.80;56.20;;;;;;5011679;28;19917;-75
2021/05/28 09:12:52;;;;;;;;;;;25.40;56.10;;;;;;5011246;28;19913;-74
2021/05/28 09:15:21;;;;;;;;;;;24.90;57.20;;;;;;5011459;28;19906;-74
2021/05/28 09:17:50;;;;;;;;;;;24.50;57.70;;;;;;5013108;28;19914;-77
2021/05/28 09:20:17;;;;;;;;;;;24.80;57.70;;;;;;4994028;28;19929;-75
2021/05/28 09:22:43;;;;;;;;;;;23.80;58.00;;;;;;5011101;28;19924;-74
2021/05/28 09:25:08;;;;;;;;;;;22.00;61.00;;;;;;5011082;28;20339;-75
2021/05/28 09:27:37;;;;;;;;;;;21.80;61.70;;;;;;5011313;28;19944;-75
2021/05/28 09:30:14;;;;;;;;;;;22.00;63.30;;;;;;5013276;28;20008;-75
2021/05/28 09:32:43;;;;;;;;;;;21.50;62.90;;;;;;5011255;28;19913;-76
2021/05/28 09:35:11;;;;;;;;;;;21.40;63.80;;;;;;5011157;28;19999;-76
2021/05/28 09:37:37;;;;;;;;;;;21.10;63.90;;;;;;5011000;28;19964;-76
2021/05/28 09:40:04;;;;;;;;;;;21.30;64.00;;;;;;5010900;28;20016;-76
2021/05/28 09:42:45;;;;;;;;;;;21.20;63.70;;;;;;5010925;28;19920;-78
2021/05/28 09:45:22;;;;;;;;;;;21.30;64.80;;;;;;4993212;28;19952;-76
2021/05/28 09:47:48;;;;;;;;;;;21.20;65.30;;;;;;4995452;28;19933;-76
2021/05/28 09:50:14;;;;;;;;;;;20.50;66.50;;;;;;5011042;28;20362;-76
2021/05/28 09:52:39;;;;;;;;;;;21.10;66.90;;;;;;5010828;28;20338;-77
2021/05/28 09:55:08;;;;;;;;;;;21.40;66.40;;;;;;5010813;28;19909;-78
2021/05/28 09:57:34;;;;;;;;;;;21.30;67.10;;;;;;5010853;28;19974;-77
2021/05/28 10:00:01;;;;;;;;;;;21.00;67.40;;;;;;5012917;28;20372;-78
2021/05/28 10:02:48;;;;;;;;;;;20.90;68.20;;;;;;5010851;28;19910;-76
2021/05/28 10:05:20;;;;;;;;;;;21.00;68.70;;;;;;5010148;28;19910;-78
2021/05/28 10:07:46;;;;;;;;;;;21.00;69.50;;;;;;5010232;28;19940;-77
2021/05/28 10:10:12;;;;;;;;;;;21.10;69.50;;;;;;5010365;28;20339;-78
2021/05/28 10:12:37;;;;;;;;;;;21.00;69.90;;;;;;5010291;28;20219;-75
2021/05/28 10:15:03;;;;;;;;;;;21.00;70.30;;;;;;5013090;28;20323;-75
2021/05/28 10:17:29;;;;;;;;;;;20.90;70.80;;;;;;5010498;28;20219;-77
2021/05/28 10:19:54;;;;;;;;;;;21.00;70.60;;;;;;5010521;28;19929;-78
2021/05/28 10:22:22;;;;;;;;;;;21.10;70.30;;;;;;5010175;28;20327;-76
2021/05/28 10:24:47;;;;;;;;;;;21.40;70.40;;;;;;4992447;28;19910;-77
2021/05/28 10:27:20;;;;;;;;;;;21.40;69.90;;;;;;5009795;28;19909;-78
2021/05/28 10:29:48;;;;;;;;;;;21.40;69.00;;;;;;5012060;28;19995;-79
2021/05/28 10:32:14;;;;;;;;;;;21.30;69.30;;;;;;5010249;28;19949;-74
2021/05/28 10:34:58;;;;;;;;;;;21.10;69.60;;;;;;5010153;28;19953;-76
2021/05/28 10:37:28;;;;;;;;;;;20.90;69.80;;;;;;5009642;28;19918;-80
2021/05/28 10:39:53;;;;;;;;;;;20.60;70.30;;;;;;5010211;28;19914;-79
2021/05/28 10:42:19;;;;;;;;;;;20.40;70.20;;;;;;5010156;28;20391;-81
2021/05/28 10:44:45;;;;;;;;;;;20.20;70.50;;;;;;5011824;28;19906;-80
2021/05/28 10:47:13;;;;;;;;;;;19.80;70.60;;;;;;5009964;28;19996;-78
2021/05/28 10:49:46;;;;;;;;;;;20.00;71.30;;;;;;4992304;28;19913;-75
2021/05/28 10:52:12;;;;;;;;;;;19.90;70.40;;;;;;5009931;28;19964;-76
2021/05/28 10:54:39;;;;;;;;;;;19.50;71.20;;;;;;5009747;28;19913;-75
2021/05/28 10:57:17;;;;;;;;;;;19.00;71.80;;;;;;4994134;28;19905;-76
2021/05/28 10:59:46;;;;;;;;;;;19.40;72.40;;;;;;5010321;28;19955;-76
2021/05/28 11:02:11;;;;;;;;;;;19.60;71.30;;;;;;5010070;28;19932;-75
2021/05/28 11:04:37;;;;;;;;;;;19.70;70.50;;;;;;5009645;28;20347;-73
2021/05/28 11:07:03;;;;;;;;;;;19.80;69.90;;;;;;5009649;28;19978;-74
2021/05/28 11:09:48;;;;;;;;;;;19.70;70.50;;;;;;5009161;28;20334;-74
2021/05/28 11:12:41;;;;;;;;;;;19.90;70.90;;;;;;5009342;28;19917;-78
2021/05/28 11:15:12;;;;;;;;;;;20.00;71.10;;;;;;5007770;28;19972;-74
2021/05/28 11:17:50;;;;;;;;;;;20.00;70.80;;;;;;5009325;28;20011;-74
2021/05/28 11:20:21;;;;;;;;;;;20.10;71.00;;;;;;5008947;28;19932;-75
2021/05/28 11:22:47;;;;;;;;;;;20.00;72.10;;;;;;5009545;28;19909;-80
2021/05/28 11:25:15;;;;;;;;;;;19.90;71.30;;;;;;5009501;28;19920;-77
2021/05/28 11:27:43;;;;;;;;;;;20.10;71.50;;;;;;5009553;28;19909;-79
2021/05/28 11:30:08;;;;;;;;;;;20.10;70.20;;;;;;5008977;28;19935;-77
2021/05/28 11:32:34;;;;;;;;;;;20.10;70.90;;;;;;5010722;28;21868;-76
2021/05/28 11:35:11;;;;;;;;;;;19.90;70.70;;;;;;5009303;28;19909;-77
2021/05/28 11:37:38;;;;;;;;;;;20.10;71.50;;;;;;5009686;28;19909;-80
2021/05/28 11:40:18;;;;;;;;;;;20.00;70.90;;;;;;5009336;28;20343;-78
2021/05/28 11:42:43;;;;;;;;;;;20.10;72.00;;;;;;5009593;28;20407;-80
2021/05/28 11:45:10;;;;;;;;;;;20.50;70.90;;;;;;4992382;28;20004;-77
2021/05/28 11:47:38;;;;;;;;;;;20.20;68.60;;;;;;5011323;28;19908;-78
2021/05/28 11:50:06;;;;;;;;;;;19.60;69.10;;;;;;4995065;28;20011;-78
2021/05/28 11:52:31;;;;;;;;;;;19.60;70.10;;;;;;5012832;28;20327;-79
2021/05/28 11:55:13;;;;;;;;;;;19.70;70.50;;;;;;5013050;28;19909;-76
2021/05/28 11:57:39;;;;;;;;;;;19.80;70.80;;;;;;5012864;28;19909;-78
2021/05/28 12:00:07;;;;;;;;;;;19.90;70.90;;;;;;5014322;28;19924;-79
2021/05/28 12:02:37;;;;;;;;;;;19.90;70.20;;;;;;5013231;28;19910;-76
2021/05/28 12:05:15;;;;;;;;;;;19.80;70.60;;;;;;4995507;28;20382;-80
2021/05/28 12:07:41;;;;;;;;;;;19.80;71.50;;;;;;5012484;28;20350;-79
2021/05/28 12:10:07;;;;;;;;;;;19.60;71.80;;;;;;5012439;28;19916;-81
2021/05/28 12:12:51;;;;;;;;;;;19.50;72.20;;;;;;4995460;28;20338;-80
2021/05/28 12:15:18;;;;;;;;;;;19.50;72.70;;;;;;5012622;28;19912;-81
2021/05/28 12:17:44;;;;;;;;;;;19.20;72.40;;;;;;5014140;28;20455;-81
2021/05/28 12:20:32;;;;;;;;;;;19.10;74.10;;;;;;4994895;28;20012;-78
2021/05/28 12:23:01;;;;;;;;;;;19.30;73.70;;;;;;5001701;28;19917;-78
2021/05/28 12:25:27;;;;;;;;;;;19.60;73.00;;;;;;5012608;28;19909;-83
2021/05/28 12:27:53;;;;;;;;;;;19.40;72.10;;;;;;5014080;28;19909;-81
2021/05/28 12:30:25;;;;;;;;;;;19.80;72.30;;;;;;4994562;28;19920;-73
2021/05/28 12:32:51;;;;;;;;;;;20.00;71.50;;;;;;4996123;28;19955;-73
2021/05/28 12:35:16;;;;;;;;;;;20.00;70.80;;;;;;5012234;28;20283;-80
2021/05/28 12:38:01;;;;;;;;;;;19.60;70.40;;;;;;5012053;28;19996;-81
2021/05/28 12:40:27;;;;;;;;;;;19.40;71.70;;;;;;4995043;28;20243;-81
2021/05/28 12:42:56;;;;;;;;;;;19.60;72.40;;;;;;5012174;28;19909;-79
2021/05/28 12:45:30;;;;;;;;;;;19.80;72.30;;;;;;5012216;28;19963;-80
2021/05/28 12:47:56;;;;;;;;;;;19.80;72.80;;;;;;4996314;28;20007;-76
2021/05/28 12:50:34;;;;;;;;;;;19.70;72.30;;;;;;4994854;28;19964;-77
2021/05/28 12:53:08;;;;;;;;;;;19.60;72.90;;;;;;4994811;28;19974;-79
2021/05/28 12:55:34;;;;;;;;;;;19.70;73.20;;;;;;5011967;28;20268;-76
2021/05/28 12:58:00;;;;;;;;;;;20.00;73.20;;;;;;5012093;28;20365;-79
2021/05/28 13:00:32;;;;;;;;;;;20.00;72.50;;;;;;4994125;28;19964;-77
2021/05/28 13:02:58;;;;;;;;;;;19.90;72.30;;;;;;4996294;28;19905;-78
2021/05/28 13:05:31;;;;;;;;;;;20.10;71.50;;;;;;5011926;28;19920;-77
2021/05/28 13:07:57;;;;;;;;;;;20.10;70.90;;;;;;4994693;28;20394;-78
2021/05/28 13:10:24;;;;;;;;;;;19.90;71.20;;;;;;4994038;28;19971;-76
2021/05/28 13:12:53;;;;;;;;;;;19.90;71.60;;;;;;5011659;28;19933;-79
2021/05/28 13:15:23;;;;;;;;;;;19.90;71.80;;;;;;4995143;28;19917;-80
2021/05/28 13:17:55;;;;;;;;;;;20.10;72.00;;;;;;4996229;28;19925;-77
2021/05/28 13:20:22;;;;;;;;;;;20.10;72.40;;;;;;4990392;28;19964;-76
2021/05/28 13:22:51;;;;;;;;;;;20.20;72.20;;;;;;4991898;28;19910;-75
2021/05/28 13:25:28;;;;;;;;;;;20.30;72.10;;;;;;4991683;28;19960;-76
2021/05/28 13:28:02;;;;;;;;;;;20.20;71.30;;;;;;4990448;28;20336;-75
2021/05/28 13:30:38;;;;;;;;;;;20.30;71.40;;;;;;4991911;28;20016;-79
2021/05/28 13:33:11;;;;;;;;;;;20.30;70.90;;;;;;4992831;28;20501;-75
2021/05/28 13:35:37;;;;;;;;;;;20.20;70.70;;;;;;4991618;28;19921;-78
2021/05/28 13:38:02;;;;;;;;;;;20.20;70.60;;;;;;4990352;28;19910;-82
2021/05/28 13:40:28;;;;;;;;;;;20.10;70.60;;;;;;4990012;28;19924;-82
2021/05/28 13:42:53;;;;;;;;;;;20.00;73.20;;;;;;4992018;28;19921;-81
2021/05/28 13:45:19;;;;;;;;;;;20.00;74.60;;;;;;4991924;28;19916;-82
2021/05/28 13:47:44;;;;;;;;;;;19.90;74.00;;;;;;4993235;28;19906;-79
2021/05/28 13:50:10;;;;;;;;;;;20.00;74.30;;;;;;4991178;28;19910;-72
2021/05/28 13:52:36;;;;;;;;;;;20.00;74.30;;;;;;4991065;28;19952;-71
2021/05/28 13:55:02;;;;;;;;;;;20.00;74.60;;;;;;4991095;28;19909;-71
2021/05/28 13:57:27;;;;;;;;;;;20.00;74.50;;;;;;4991045;28;19918;-72
2021/05/28 13:59:53;;;;;;;;;;;20.10;75.90;;;;;;4991690;28;19960;-71
2021/05/28 14:02:18;;;;;;;;;;;20.10;76.00;;;;;;4989816;28;19922;-71
2021/05/28 14:04:44;;;;;;;;;;;20.00;75.50;;;;;;4991437;28;19910;-71
2021/05/28 14:07:09;;;;;;;;;;;20.00;75.10;;;;;;4991028;28;19917;-72
2021/05/28 14:09:35;;;;;;;;;;;20.00;74.30;;;;;;4990792;28;19910;-72
2021/05/28 14:12:00;;;;;;;;;;;20.00;73.40;;;;;;4992168;28;19936;-72
2021/05/28 14:14:26;;;;;;;;;;;20.00;72.80;;;;;;4990728;28;19924;-72